Rock Creek, Minnesota
Current Conditions -  °F | °C
As of 2:55 PM on Tuesday 21 Oct 2014 (Local Time) from KROS Reporting Station
Scattered Clouds Scattered Clouds  
Wind Chill: 56°   Ceiling: Unl
Heat Index: 56°   Visibility: 10mi
Dew Point: 38°   Wind: 6mph
Humidity: 51%   Direction: 110°ESE
Pressure: 30.17"   Gusts: NA
Location:  45.76°N, 92.96°W
Report Text: KROS 211955Z AUTO 11005KT 10SM SCT110 14/04 A3017 RMK AO2 T01360036
Loading
Personal Weather Stations






























Interactive Weather Map
Tropical Storm Tracking
New forecast layout! Learn more

10-Day Weather Forecast

Advertisements
Track Severe Weather on mobile